sensor_id;sensor_type;location;lat;lon;timestamp;pressure;altitude;pressure_sealevel;temperature;humidity
78485;BME280;67773;50.806;8.776;2023-07-30T00:02:18;99046.28;;;15.82;92.57
78485;BME280;67773;50.806;8.776;2023-07-30T00:04:44;99044.00;;;15.77;93.09
78485;BME280;67773;50.806;8.776;2023-07-30T00:07:09;99037.16;;;15.73;93.24
78485;BME280;67773;50.806;8.776;2023-07-30T00:09:36;99021.91;;;15.64;93.39
78485;BME280;67773;50.806;8.776;2023-07-30T00:12:02;99021.63;;;15.67;93.41
78485;BME280;67773;50.806;8.776;2023-07-30T00:14:27;99022.50;;;15.68;93.06
78485;BME280;67773;50.806;8.776;2023-07-30T00:16:53;99039.13;;;15.71;93.21
78485;BME280;67773;50.806;8.776;2023-07-30T00:19:18;99039.75;;;15.75;93.36
78485;BME280;67773;50.806;8.776;2023-07-30T00:21:44;99043.03;;;15.67;93.61
78485;BME280;67773;50.806;8.776;2023-07-30T00:24:12;99041.84;;;15.60;93.49
78485;BME280;67773;50.806;8.776;2023-07-30T00:26:38;99030.88;;;15.52;93.62
78485;BME280;67773;50.806;8.776;2023-07-30T00:29:03;99028.94;;;15.54;93.04
78485;BME280;67773;50.806;8.776;2023-07-30T00:31:29;99031.38;;;15.57;93.17
78485;BME280;67773;50.806;8.776;2023-07-30T00:33:54;99023.94;;;15.49;93.17
78485;BME280;67773;50.806;8.776;2023-07-30T00:36:19;99033.56;;;15.41;93.10
78485;BME280;67773;50.806;8.776;2023-07-30T00:38:45;99039.41;;;15.46;93.42
78485;BME280;67773;50.806;8.776;2023-07-30T00:41:10;99035.78;;;15.36;93.14
78485;BME280;67773;50.806;8.776;2023-07-30T00:43:35;99042.94;;;15.35;93.21
78485;BME280;67773;50.806;8.776;2023-07-30T00:46:01;99054.50;;;15.36;93.55
78485;BME280;67773;50.806;8.776;2023-07-30T00:48:27;99052.19;;;15.31;93.33
78485;BME280;67773;50.806;8.776;2023-07-30T00:50:52;99063.84;;;15.41;93.46
78485;BME280;67773;50.806;8.776;2023-07-30T00:53:19;99057.91;;;15.38;93.48
78485;BME280;67773;50.806;8.776;2023-07-30T00:55:47;99058.38;;;15.31;94.30
78485;BME280;67773;50.806;8.776;2023-07-30T00:58:12;99041.50;;;15.20;93.47
78485;BME280;67773;50.806;8.776;2023-07-30T01:00:38;99068.47;;;15.28;93.93
78485;BME280;67773;50.806;8.776;2023-07-30T01:03:03;99063.25;;;15.26;94.04
78485;BME280;67773;50.806;8.776;2023-07-30T01:05:29;99056.44;;;15.34;94.47
78485;BME280;67773;50.806;8.776;2023-07-30T01:07:54;99083.53;;;15.40;94.50
78485;BME280;67773;50.806;8.776;2023-07-30T01:10:21;99079.75;;;15.31;94.66
78485;BME280;67773;50.806;8.776;2023-07-30T01:12:48;99066.41;;;15.20;94.53
78485;BME280;67773;50.806;8.776;2023-07-30T01:15:13;99065.94;;;15.15;94.16
78485;BME280;67773;50.806;8.776;2023-07-30T01:17:39;99087.56;;;15.23;94.28
78485;BME280;67773;50.806;8.776;2023-07-30T01:20:05;99078.44;;;15.26;94.38
78485;BME280;67773;50.806;8.776;2023-07-30T01:22:30;99071.28;;;15.15;94.45
78485;BME280;67773;50.806;8.776;2023-07-30T01:24:56;99085.13;;;15.20;94.76
78485;BME280;67773;50.806;8.776;2023-07-30T01:27:26;99077.84;;;15.11;94.64
78485;BME280;67773;50.806;8.776;2023-07-30T01:29:56;99080.53;;;15.11;94.54
78485;BME280;67773;50.806;8.776;2023-07-30T01:32:27;99083.91;;;15.02;94.74
78485;BME280;67773;50.806;8.776;2023-07-30T01:34:54;99094.84;;;15.10;93.97
78485;BME280;67773;50.806;8.776;2023-07-30T01:37:21;99101.16;;;15.09;94.20
78485;BME280;67773;50.806;8.776;2023-07-30T01:39:48;99093.13;;;14.98;94.37
78485;BME280;67773;50.806;8.776;2023-07-30T01:42:15;99087.31;;;15.04;93.90
78485;BME280;67773;50.806;8.776;2023-07-30T01:44:40;99093.00;;;14.99;94.64
78485;BME280;67773;50.806;8.776;2023-07-30T01:47:06;99089.84;;;14.94;94.18
78485;BME280;67773;50.806;8.776;2023-07-30T01:49:31;99094.09;;;14.86;94.19
78485;BME280;67773;50.806;8.776;2023-07-30T01:51:56;99107.59;;;14.95;94.22
78485;BME280;67773;50.806;8.776;2023-07-30T01:54:22;99095.78;;;14.87;94.74
78485;BME280;67773;50.806;8.776;2023-07-30T01:56:47;99089.47;;;14.88;93.94
78485;BME280;67773;50.806;8.776;2023-07-30T01:59:13;99105.78;;;14.96;94.22
78485;BME280;67773;50.806;8.776;2023-07-30T02:01:38;99117.91;;;15.00;94.28
78485;BME280;67773;50.806;8.776;2023-07-30T02:04:04;99115.47;;;14.86;94.29
78485;BME280;67773;50.806;8.776;2023-07-30T02:06:29;99109.66;;;14.81;94.14
78485;BME280;67773;50.806;8.776;2023-07-30T02:08:54;99119.25;;;14.83;94.15
78485;BME280;67773;50.806;8.776;2023-07-30T02:11:20;99115.94;;;14.80;94.35
78485;BME280;67773;50.806;8.776;2023-07-30T02:13:45;99102.56;;;14.68;94.67
78485;BME280;67773;50.806;8.776;2023-07-30T02:16:10;99109.13;;;14.76;94.83
78485;BME280;67773;50.806;8.776;2023-07-30T02:18:36;99099.41;;;14.63;94.59
78485;BME280;67773;50.806;8.776;2023-07-30T02:21:01;99107.88;;;14.57;94.76
78485;BME280;67773;50.806;8.776;2023-07-30T02:23:26;99127.09;;;14.62;94.40
78485;BME280;67773;50.806;8.776;2023-07-30T02:25:52;99117.47;;;14.49;94.27
78485;BME280;67773;50.806;8.776;2023-07-30T02:28:17;99121.06;;;14.48;94.55
78485;BME280;67773;50.806;8.776;2023-07-30T02:30:44;99129.72;;;14.51;94.67
78485;BME280;67773;50.806;8.776;2023-07-30T02:33:09;99109.53;;;14.47;94.98
78485;BME280;67773;50.806;8.776;2023-07-30T02:35:34;99129.03;;;14.60;94.85
78485;BME280;67773;50.806;8.776;2023-07-30T02:38:00;99127.66;;;14.55;94.45
78485;BME280;67773;50.806;8.776;2023-07-30T02:40:25;99126.19;;;14.51;94.88
78485;BME280;67773;50.806;8.776;2023-07-30T02:42:50;99133.38;;;14.50;95.18
78485;BME280;67773;50.806;8.776;2023-07-30T02:45:16;99132.59;;;14.48;95.13
78485;BME280;67773;50.806;8.776;2023-07-30T02:47:41;99131.66;;;14.49;95.09
78485;BME280;67773;50.806;8.776;2023-07-30T02:50:08;99114.31;;;14.31;94.76
78485;BME280;67773;50.806;8.776;2023-07-30T02:52:33;99134.53;;;14.46;95.00
78485;BME280;67773;50.806;8.776;2023-07-30T02:54:59;99109.94;;;14.30;94.75
78485;BME280;67773;50.806;8.776;2023-07-30T02:57:24;99132.53;;;14.37;95.05
78485;BME280;67773;50.806;8.776;2023-07-30T02:59:50;99136.53;;;14.31;95.16
78485;BME280;67773;50.806;8.776;2023-07-30T03:02:17;99139.47;;;14.39;95.49
78485;BME280;67773;50.806;8.776;2023-07-30T03:04:42;99143.72;;;14.42;95.76
78485;BME280;67773;50.806;8.776;2023-07-30T03:07:09;99131.06;;;14.33;95.20
78485;BME280;67773;50.806;8.776;2023-07-30T03:09:34;99154.97;;;14.34;95.13
78485;BME280;67773;50.806;8.776;2023-07-30T03:12:00;99159.59;;;14.32;95.59
78485;BME280;67773;50.806;8.776;2023-07-30T03:14:25;99153.63;;;14.29;94.97
78485;BME280;67773;50.806;8.776;2023-07-30T03:16:51;99133.94;;;14.19;94.99
78485;BME280;67773;50.806;8.776;2023-07-30T03:19:16;99140.22;;;14.18;95.07
78485;BME280;67773;50.806;8.776;2023-07-30T03:21:42;99144.00;;;14.26;94.96
78485;BME280;67773;50.806;8.776;2023-07-30T03:24:08;99155.94;;;14.33;94.86
78485;BME280;67773;50.806;8.776;2023-07-30T03:26:33;99153.88;;;14.37;94.72
78485;BME280;67773;50.806;8.776;2023-07-30T03:28:58;99159.34;;;14.35;94.93
78485;BME280;67773;50.806;8.776;2023-07-30T03:31:24;99148.66;;;14.35;94.30
78485;BME280;67773;50.806;8.776;2023-07-30T03:33:49;99164.34;;;14.40;94.84
78485;BME280;67773;50.806;8.776;2023-07-30T03:36:15;99141.00;;;14.31;93.86
78485;BME280;67773;50.806;8.776;2023-07-30T03:38:41;99143.56;;;14.32;93.97
78485;BME280;67773;50.806;8.776;2023-07-30T03:41:07;99161.13;;;14.48;94.14
78485;BME280;67773;50.806;8.776;2023-07-30T03:43:35;99171.97;;;14.57;94.17
78485;BME280;67773;50.806;8.776;2023-07-30T03:46:01;99159.47;;;14.58;93.83
78485;BME280;67773;50.806;8.776;2023-07-30T03:48:26;99167.16;;;14.62;94.02
78485;BME280;67773;50.806;8.776;2023-07-30T03:50:55;99177.72;;;14.64;93.96
78485;BME280;67773;50.806;8.776;2023-07-30T03:53:21;99169.06;;;14.49;94.23
78485;BME280;67773;50.806;8.776;2023-07-30T03:55:46;99174.88;;;14.54;94.37
78485;BME280;67773;50.806;8.776;2023-07-30T03:58:12;99166.88;;;14.54;94.16
78485;BME280;67773;50.806;8.776;2023-07-30T04:00:37;99179.16;;;14.44;93.99
78485;BME280;67773;50.806;8.776;2023-07-30T04:03:03;99179.84;;;14.35;94.68
78485;BME280;67773;50.806;8.776;2023-07-30T04:05:29;99177.72;;;14.40;94.53
78485;BME280;67773;50.806;8.776;2023-07-30T04:07:55;99153.22;;;14.22;95.18
78485;BME280;67773;50.806;8.776;2023-07-30T04:10:20;99169.66;;;14.29;94.74
78485;BME280;67773;50.806;8.776;2023-07-30T04:12:45;99175.00;;;14.29;95.15
78485;BME280;67773;50.806;8.776;2023-07-30T04:15:11;99184.97;;;14.38;94.56
78485;BME280;67773;50.806;8.776;2023-07-30T04:17:37;99188.59;;;14.37;94.27
78485;BME280;67773;50.806;8.776;2023-07-30T04:20:03;99168.81;;;14.28;93.99
78485;BME280;67773;50.806;8.776;2023-07-30T04:22:29;99167.59;;;14.32;94.38
78485;BME280;67773;50.806;8.776;2023-07-30T04:24:55;99177.25;;;14.46;95.45
78485;BME280;67773;50.806;8.776;2023-07-30T04:27:21;99176.34;;;14.58;95.51
78485;BME280;67773;50.806;8.776;2023-07-30T04:29:47;99153.75;;;14.51;95.30
78485;BME280;67773;50.806;8.776;2023-07-30T04:32:12;99161.09;;;14.71;95.04
78485;BME280;67773;50.806;8.776;2023-07-30T04:34:38;99176.81;;;14.87;94.75
78485;BME280;67773;50.806;8.776;2023-07-30T04:37:03;99162.34;;;14.90;94.50
78485;BME280;67773;50.806;8.776;2023-07-30T04:39:31;99161.66;;;14.99;94.05
78485;BME280;67773;50.806;8.776;2023-07-30T04:41:57;99165.31;;;15.09;94.07
78485;BME280;67773;50.806;8.776;2023-07-30T04:44:22;99162.31;;;15.14;93.35
78485;BME280;67773;50.806;8.776;2023-07-30T04:46:47;99164.84;;;15.15;93.60
78485;BME280;67773;50.806;8.776;2023-07-30T04:49:13;99157.81;;;15.14;93.51
78485;BME280;67773;50.806;8.776;2023-07-30T04:51:38;99167.66;;;15.14;93.28
78485;BME280;67773;50.806;8.776;2023-07-30T04:54:04;99166.09;;;15.22;93.51
78485;BME280;67773;50.806;8.776;2023-07-30T04:56:29;99143.59;;;15.14;93.07
78485;BME280;67773;50.806;8.776;2023-07-30T04:58:54;99147.47;;;15.21;92.83
78485;BME280;67773;50.806;8.776;2023-07-30T05:01:20;99142.25;;;15.19;92.62
78485;BME280;67773;50.806;8.776;2023-07-30T05:03:46;99158.28;;;15.30;92.41
78485;BME280;67773;50.806;8.776;2023-07-30T05:06:11;99161.72;;;15.33;92.71
78485;BME280;67773;50.806;8.776;2023-07-30T05:08:36;99141.91;;;15.24;92.96
78485;BME280;67773;50.806;8.776;2023-07-30T05:11:02;99160.88;;;15.32;92.78
78485;BME280;67773;50.806;8.776;2023-07-30T05:13:27;99149.06;;;15.23;93.32
78485;BME280;67773;50.806;8.776;2023-07-30T05:15:52;99158.16;;;15.21;93.41
78485;BME280;67773;50.806;8.776;2023-07-30T05:18:18;99163.63;;;15.19;93.69
78485;BME280;67773;50.806;8.776;2023-07-30T05:20:46;99154.03;;;15.17;93.78
78485;BME280;67773;50.806;8.776;2023-07-30T05:23:11;99163.63;;;15.19;93.97
78485;BME280;67773;50.806;8.776;2023-07-30T05:25:36;99160.94;;;15.19;94.19
78485;BME280;67773;50.806;8.776;2023-07-30T05:28:02;99153.66;;;15.21;93.93
78485;BME280;67773;50.806;8.776;2023-07-30T05:30:28;99152.47;;;15.25;94.16
78485;BME280;67773;50.806;8.776;2023-07-30T05:32:53;99141.19;;;15.33;93.53
78485;BME280;67773;50.806;8.776;2023-07-30T05:35:19;99147.84;;;15.50;93.62
78485;BME280;67773;50.806;8.776;2023-07-30T05:37:44;99149.47;;;15.64;92.54
78485;BME280;67773;50.806;8.776;2023-07-30T05:40:11;99141.44;;;15.75;92.38
78485;BME280;67773;50.806;8.776;2023-07-30T05:42:36;99150.16;;;15.88;91.46
78485;BME280;67773;50.806;8.776;2023-07-30T05:45:02;99150.84;;;16.01;91.29
78485;BME280;67773;50.806;8.776;2023-07-30T05:47:28;99133.91;;;16.12;90.57
78485;BME280;67773;50.806;8.776;2023-07-30T05:49:53;99144.81;;;16.31;89.48
78485;BME280;67773;50.806;8.776;2023-07-30T05:52:18;99152.75;;;16.54;88.51
78485;BME280;67773;50.806;8.776;2023-07-30T05:54:47;99154.91;;;16.71;87.75
78485;BME280;67773;50.806;8.776;2023-07-30T05:57:12;99149.28;;;16.63;87.34
78485;BME280;67773;50.806;8.776;2023-07-30T05:59:37;99135.19;;;16.61;87.47
78485;BME280;67773;50.806;8.776;2023-07-30T06:02:04;99148.81;;;16.69;86.26
78485;BME280;67773;50.806;8.776;2023-07-30T06:04:30;99142.50;;;16.59;85.52
78485;BME280;67773;50.806;8.776;2023-07-30T06:06:55;99147.34;;;16.65;86.07
78485;BME280;67773;50.806;8.776;2023-07-30T06:09:21;99160.47;;;16.79;84.76
78485;BME280;67773;50.806;8.776;2023-07-30T06:11:46;99171.25;;;16.89;83.80
78485;BME280;67773;50.806;8.776;2023-07-30T06:14:11;99162.31;;;16.99;83.32
78485;BME280;67773;50.806;8.776;2023-07-30T06:16:37;99176.94;;;17.16;82.05
78485;BME280;67773;50.806;8.776;2023-07-30T06:19:02;99160.00;;;17.16;82.23
78485;BME280;67773;50.806;8.776;2023-07-30T06:21:27;99162.72;;;17.25;80.92
78485;BME280;67773;50.806;8.776;2023-07-30T06:23:53;99177.75;;;17.38;80.17
78485;BME280;67773;50.806;8.776;2023-07-30T06:26:18;99176.38;;;17.43;78.89
78485;BME280;67773;50.806;8.776;2023-07-30T06:28:44;99164.84;;;17.52;79.38
78485;BME280;67773;50.806;8.776;2023-07-30T06:31:09;99160.94;;;17.66;78.65
78485;BME280;67773;50.806;8.776;2023-07-30T06:33:35;99165.53;;;17.75;78.46
78485;BME280;67773;50.806;8.776;2023-07-30T06:36:02;99151.19;;;17.65;78.10
78485;BME280;67773;50.806;8.776;2023-07-30T06:38:28;99166.56;;;17.84;77.58
78485;BME280;67773;50.806;8.776;2023-07-30T06:40:53;99168.41;;;18.03;74.56
78485;BME280;67773;50.806;8.776;2023-07-30T06:43:19;99161.59;;;17.89;75.03
78485;BME280;67773;50.806;8.776;2023-07-30T06:45:44;99170.25;;;17.93;76.32
78485;BME280;67773;50.806;8.776;2023-07-30T06:48:09;99162.91;;;17.95;74.54
78485;BME280;67773;50.806;8.776;2023-07-30T06:50:35;99178.06;;;18.05;73.61
78485;BME280;67773;50.806;8.776;2023-07-30T06:53:00;99175.91;;;17.99;72.96
78485;BME280;67773;50.806;8.776;2023-07-30T06:55:25;99158.38;;;17.95;72.36
78485;BME280;67773;50.806;8.776;2023-07-30T06:57:51;99178.97;;;18.25;70.93
78485;BME280;67773;50.806;8.776;2023-07-30T07:00:16;99180.09;;;18.52;69.19
78485;BME280;67773;50.806;8.776;2023-07-30T07:02:49;99183.22;;;18.57;69.30
78485;BME280;67773;50.806;8.776;2023-07-30T07:05:15;99177.75;;;18.68;68.56
78485;BME280;67773;50.806;8.776;2023-07-30T07:07:40;99187.38;;;18.80;67.78
78485;BME280;67773;50.806;8.776;2023-07-30T07:10:06;99197.97;;;18.82;67.68
78485;BME280;67773;50.806;8.776;2023-07-30T07:12:32;99183.69;;;18.91;66.78
78485;BME280;67773;50.806;8.776;2023-07-30T07:14:57;99183.81;;;18.70;65.67
78485;BME280;67773;50.806;8.776;2023-07-30T07:17:24;99189.06;;;18.71;67.17
78485;BME280;67773;50.806;8.776;2023-07-30T07:19:49;99186.06;;;18.94;66.10
78485;BME280;67773;50.806;8.776;2023-07-30T07:22:14;99162.28;;;19.09;66.00
78485;BME280;67773;50.806;8.776;2023-07-30T07:24:42;99184.44;;;19.40;64.75
78485;BME280;67773;50.806;8.776;2023-07-30T07:27:08;99190.13;;;19.17;63.95
78485;BME280;67773;50.806;8.776;2023-07-30T07:29:33;99198.94;;;19.10;63.52
78485;BME280;67773;50.806;8.776;2023-07-30T07:31:59;99202.19;;;19.03;64.77
78485;BME280;67773;50.806;8.776;2023-07-30T07:34:24;99199.66;;;19.02;64.33
78485;BME280;67773;50.806;8.776;2023-07-30T07:36:49;99200.50;;;19.12;62.47
78485;BME280;67773;50.806;8.776;2023-07-30T07:39:15;99206.28;;;19.17;61.50
78485;BME280;67773;50.806;8.776;2023-07-30T07:41:40;99178.13;;;19.12;62.62
78485;BME280;67773;50.806;8.776;2023-07-30T07:44:05;99204.09;;;19.50;62.55
78485;BME280;67773;50.806;8.776;2023-07-30T07:46:31;99200.53;;;19.59;62.76
78485;BME280;67773;50.806;8.776;2023-07-30T07:48:56;99199.00;;;19.47;64.00
78485;BME280;67773;50.806;8.776;2023-07-30T07:51:21;99213.91;;;19.41;62.94
78485;BME280;67773;50.806;8.776;2023-07-30T07:53:47;99205.81;;;19.60;63.62
78485;BME280;67773;50.806;8.776;2023-07-30T07:56:12;99213.69;;;19.72;61.67
78485;BME280;67773;50.806;8.776;2023-07-30T07:58:38;99208.03;;;19.65;61.55
78485;BME280;67773;50.806;8.776;2023-07-30T08:01:03;99205.81;;;19.60;63.14
78485;BME280;67773;50.806;8.776;2023-07-30T08:03:28;99213.56;;;19.54;63.03
78485;BME280;67773;50.806;8.776;2023-07-30T08:05:54;99212.66;;;19.26;63.73
78485;BME280;67773;50.806;8.776;2023-07-30T08:08:19;99201.94;;;18.97;65.53
78485;BME280;67773;50.806;8.776;2023-07-30T08:10:44;99220.34;;;18.82;65.77
78485;BME280;67773;50.806;8.776;2023-07-30T08:13:15;99207.41;;;18.47;66.76
78485;BME280;67773;50.806;8.776;2023-07-30T08:15:41;99209.09;;;18.48;66.91
78485;BME280;67773;50.806;8.776;2023-07-30T08:18:06;99208.41;;;18.46;66.90
78485;BME280;67773;50.806;8.776;2023-07-30T08:20:31;99220.16;;;18.45;68.25
78485;BME280;67773;50.806;8.776;2023-07-30T08:22:57;99209.78;;;18.31;68.73
78485;BME280;67773;50.806;8.776;2023-07-30T08:25:22;99209.09;;;18.38;69.53
78485;BME280;67773;50.806;8.776;2023-07-30T08:27:47;99222.00;;;18.44;67.84
78485;BME280;67773;50.806;8.776;2023-07-30T08:30:13;99219.97;;;18.37;69.19
78485;BME280;67773;50.806;8.776;2023-07-30T08:32:38;99212.03;;;18.26;69.69
78485;BME280;67773;50.806;8.776;2023-07-30T08:35:04;99220.81;;;18.28;69.41
78485;BME280;67773;50.806;8.776;2023-07-30T08:37:30;99217.13;;;18.29;68.83
78485;BME280;67773;50.806;8.776;2023-07-30T08:39:55;99221.81;;;18.27;69.86
78485;BME280;67773;50.806;8.776;2023-07-30T08:42:21;99211.19;;;18.25;68.91
78485;BME280;67773;50.806;8.776;2023-07-30T08:44:47;99212.03;;;18.26;69.80
78485;BME280;67773;50.806;8.776;2023-07-30T08:47:12;99212.59;;;18.20;69.49
78485;BME280;67773;50.806;8.776;2023-07-30T08:49:38;99202.94;;;18.07;70.10
78485;BME280;67773;50.806;8.776;2023-07-30T08:52:05;99213.78;;;17.96;70.10
78485;BME280;67773;50.806;8.776;2023-07-30T08:54:33;99213.56;;;17.78;69.75
78485;BME280;67773;50.806;8.776;2023-07-30T08:56:59;99222.91;;;17.53;70.89
78485;BME280;67773;50.806;8.776;2023-07-30T08:59:27;99239.00;;;17.12;74.77
78485;BME280;67773;50.806;8.776;2023-07-30T09:01:55;99249.44;;;16.62;77.78
78485;BME280;67773;50.806;8.776;2023-07-30T09:04:22;99249.66;;;16.27;77.75
78485;BME280;67773;50.806;8.776;2023-07-30T09:06:48;99254.53;;;16.10;78.15
78485;BME280;67773;50.806;8.776;2023-07-30T09:09:14;99256.63;;;15.96;79.53
78485;BME280;67773;50.806;8.776;2023-07-30T09:11:39;99256.13;;;15.91;78.62
78485;BME280;67773;50.806;8.776;2023-07-30T09:14:06;99253.66;;;16.10;79.66
78485;BME280;67773;50.806;8.776;2023-07-30T09:16:31;99245.88;;;16.18;78.30
78485;BME280;67773;50.806;8.776;2023-07-30T09:18:57;99242.25;;;15.97;77.37
78485;BME280;67773;50.806;8.776;2023-07-30T09:21:33;99255.97;;;16.14;78.50
78485;BME280;67773;50.806;8.776;2023-07-30T09:24:02;99255.03;;;16.15;80.66
78485;BME280;67773;50.806;8.776;2023-07-30T09:26:45;99264.88;;;16.26;79.87
78485;BME280;67773;50.806;8.776;2023-07-30T09:29:10;99252.69;;;16.22;77.26
78485;BME280;67773;50.806;8.776;2023-07-30T09:31:50;99269.75;;;16.10;78.97
78485;BME280;67773;50.806;8.776;2023-07-30T09:34:23;99278.75;;;15.86;78.07
78485;BME280;67773;50.806;8.776;2023-07-30T09:36:55;99279.59;;;15.65;79.71
78485;BME280;67773;50.806;8.776;2023-07-30T09:39:25;99276.94;;;15.41;80.23
78485;BME280;67773;50.806;8.776;2023-07-30T09:41:52;99276.94;;;15.41;82.90
78485;BME280;67773;50.806;8.776;2023-07-30T09:44:19;99272.78;;;15.25;81.64
78485;BME280;67773;50.806;8.776;2023-07-30T09:46:49;99289.16;;;15.21;83.78
78485;BME280;67773;50.806;8.776;2023-07-30T09:49:16;99302.16;;;15.14;85.09
78485;BME280;67773;50.806;8.776;2023-07-30T09:51:42;99304.09;;;15.12;86.15
78485;BME280;67773;50.806;8.776;2023-07-30T09:54:08;99290.47;;;15.04;86.17
78485;BME280;67773;50.806;8.776;2023-07-30T09:56:36;99309.38;;;15.25;86.69
78485;BME280;67773;50.806;8.776;2023-07-30T09:59:03;99302.84;;;15.40;87.48
78485;BME280;67773;50.806;8.776;2023-07-30T10:01:29;99293.63;;;15.44;85.45
78485;BME280;67773;50.806;8.776;2023-07-30T10:03:56;99305.53;;;15.51;86.40
78485;BME280;67773;50.806;8.776;2023-07-30T10:06:25;99296.06;;;15.58;86.41
78485;BME280;67773;50.806;8.776;2023-07-30T10:08:53;99302.28;;;15.59;85.59
78485;BME280;67773;50.806;8.776;2023-07-30T10:11:22;99302.69;;;15.66;85.32
78485;BME280;67773;50.806;8.776;2023-07-30T10:13:49;99301.72;;;15.67;85.65
78485;BME280;67773;50.806;8.776;2023-07-30T10:16:15;99290.91;;;15.68;85.53
78485;BME280;67773;50.806;8.776;2023-07-30T10:18:42;99301.13;;;15.85;85.06
78485;BME280;67773;50.806;8.776;2023-07-30T10:21:08;99285.31;;;15.94;82.75
78485;BME280;67773;50.806;8.776;2023-07-30T10:23:34;99307.47;;;16.29;82.29
78485;BME280;67773;50.806;8.776;2023-07-30T10:26:09;99308.97;;;17.20;79.56
78485;BME280;67773;50.806;8.776;2023-07-30T10:28:35;99303.03;;;17.79;76.17
78485;BME280;67773;50.806;8.776;2023-07-30T10:31:06;99314.66;;;17.68;79.07
78485;BME280;67773;50.806;8.776;2023-07-30T10:33:50;99295.56;;;17.41;78.19
78485;BME280;67773;50.806;8.776;2023-07-30T10:39:11;99289.75;;;17.03;79.89
78485;BME280;67773;50.806;8.776;2023-07-30T10:41:37;99302.91;;;17.07;79.29
78485;BME280;67773;50.806;8.776;2023-07-30T10:44:03;99299.41;;;16.95;80.83
78485;BME280;67773;50.806;8.776;2023-07-30T10:46:28;99310.88;;;17.71;77.90
78485;BME280;67773;50.806;8.776;2023-07-30T10:48:54;99311.50;;;18.35;77.47
78485;BME280;67773;50.806;8.776;2023-07-30T10:51:19;99318.59;;;18.46;74.61
78485;BME280;67773;50.806;8.776;2023-07-30T10:53:47;99306.16;;;18.55;73.00
78485;BME280;67773;50.806;8.776;2023-07-30T10:56:13;99313.34;;;18.44;72.27
78485;BME280;67773;50.806;8.776;2023-07-30T10:58:40;99320.53;;;18.34;72.11
78485;BME280;67773;50.806;8.776;2023-07-30T11:01:08;99316.75;;;18.46;72.14
78485;BME280;67773;50.806;8.776;2023-07-30T11:03:35;99325.06;;;18.84;68.64
78485;BME280;67773;50.806;8.776;2023-07-30T11:06:02;99326.81;;;19.72;65.94
78485;BME280;67773;50.806;8.776;2023-07-30T11:08:42;99326.19;;;20.34;62.95
78485;BME280;67773;50.806;8.776;2023-07-30T11:11:09;99318.56;;;20.20;62.46
78485;BME280;67773;50.806;8.776;2023-07-30T11:13:39;99308.13;;;20.07;63.47
78485;BME280;67773;50.806;8.776;2023-07-30T11:16:05;99325.63;;;19.94;64.57
78485;BME280;67773;50.806;8.776;2023-07-30T11:18:32;99328.63;;;19.52;64.11
78485;BME280;67773;50.806;8.776;2023-07-30T11:21:10;99330.19;;;19.35;65.51
78485;BME280;67773;50.806;8.776;2023-07-30T11:23:37;99324.50;;;18.80;67.58
78485;BME280;67773;50.806;8.776;2023-07-30T11:26:05;99323.50;;;18.81;64.64
78485;BME280;67773;50.806;8.776;2023-07-30T11:28:40;99322.97;;;19.74;62.22
78485;BME280;67773;50.806;8.776;2023-07-30T11:33:33;99321.72;;;19.11;63.11
78485;BME280;67773;50.806;8.776;2023-07-30T11:36:01;99329.66;;;19.70;63.32
78485;BME280;67773;50.806;8.776;2023-07-30T11:38:28;99338.44;;;19.63;61.76
78485;BME280;67773;50.806;8.776;2023-07-30T11:40:55;99337.13;;;19.38;61.04
78485;BME280;67773;50.806;8.776;2023-07-30T11:43:22;99327.63;;;19.04;61.98
78485;BME280;67773;50.806;8.776;2023-07-30T11:45:48;99332.47;;;19.11;63.17
78485;BME280;67773;50.806;8.776;2023-07-30T11:48:13;99316.31;;;23.22;51.89
78485;BME280;67773;50.806;8.776;2023-07-30T11:50:47;99311.28;;;27.11;41.93
78485;BME280;67773;50.806;8.776;2023-07-30T11:53:13;99321.94;;;27.27;41.17
78485;BME280;67773;50.806;8.776;2023-07-30T11:55:39;99320.34;;;27.18;41.94
78485;BME280;67773;50.806;8.776;2023-07-30T11:58:06;99311.44;;;26.73;40.71
78485;BME280;67773;50.806;8.776;2023-07-30T12:00:32;99328.66;;;26.59;40.48
78485;BME280;67773;50.806;8.776;2023-07-30T12:03:06;99314.84;;;26.31;40.57
78485;BME280;67773;50.806;8.776;2023-07-30T12:05:38;99342.94;;;23.51;44.79
78485;BME280;67773;50.806;8.776;2023-07-30T12:08:05;99328.75;;;21.88;51.38
78485;BME280;67773;50.806;8.776;2023-07-30T12:10:46;99339.91;;;21.14;53.01
78485;BME280;67773;50.806;8.776;2023-07-30T12:13:17;99328.97;;;20.97;54.76
78485;BME280;67773;50.806;8.776;2023-07-30T12:15:53;99325.06;;;20.64;53.27
78485;BME280;67773;50.806;8.776;2023-07-30T12:18:22;99332.16;;;20.83;52.84
78485;BME280;67773;50.806;8.776;2023-07-30T12:20:52;99326.25;;;20.80;53.08
78485;BME280;67773;50.806;8.776;2023-07-30T12:23:18;99329.44;;;21.46;51.78
78485;BME280;67773;50.806;8.776;2023-07-30T12:25:43;99335.97;;;23.16;46.21
78485;BME280;67773;50.806;8.776;2023-07-30T12:28:09;99304.75;;;25.04;42.75
78485;BME280;67773;50.806;8.776;2023-07-30T12:30:34;99320.25;;;26.90;38.54
78485;BME280;67773;50.806;8.776;2023-07-30T12:33:02;99324.72;;;27.55;36.36
78485;BME280;67773;50.806;8.776;2023-07-30T12:35:27;99306.47;;;28.33;35.79
78485;BME280;67773;50.806;8.776;2023-07-30T12:37:53;99314.75;;;28.46;36.62
78485;BME280;67773;50.806;8.776;2023-07-30T12:40:18;99310.34;;;28.45;33.87
78485;BME280;67773;50.806;8.776;2023-07-30T12:42:44;99308.06;;;26.57;38.90
78485;BME280;67773;50.806;8.776;2023-07-30T12:45:09;99304.66;;;25.43;41.60
78485;BME280;67773;50.806;8.776;2023-07-30T12:47:35;99306.72;;;23.68;42.86
78485;BME280;67773;50.806;8.776;2023-07-30T12:50:02;99338.19;;;23.28;45.00
78485;BME280;67773;50.806;8.776;2023-07-30T12:52:27;99309.81;;;22.40;46.13
78485;BME280;67773;50.806;8.776;2023-07-30T12:54:53;99338.09;;;21.50;48.24
78485;BME280;67773;50.806;8.776;2023-07-30T12:57:18;99348.38;;;20.56;51.50
78485;BME280;67773;50.806;8.776;2023-07-30T12:59:43;99347.19;;;20.21;52.50
78485;BME280;67773;50.806;8.776;2023-07-30T13:02:10;99346.28;;;20.12;50.81